sensor_id;sensor_type;location;lat;lon;timestamp;temperature;humidity
35633;DHT22;21754;48.216;-1.628;2022-07-01T00:00:59;16.10;99.90
35633;DHT22;21754;48.216;-1.628;2022-07-01T00:03:25;16.10;99.90
35633;DHT22;21754;48.216;-1.628;2022-07-01T00:05:50;16.10;99.90
35633;DHT22;21754;48.216;-1.628;2022-07-01T00:08:16;16.10;99.90
35633;DHT22;21754;48.216;-1.628;2022-07-01T00:10:42;16.30;99.90
35633;DHT22;21754;48.216;-1.628;2022-07-01T00:13:08;15.90;99.90
35633;DHT22;21754;48.216;-1.628;2022-07-01T00:15:34;15.90;99.90
35633;DHT22;21754;48.216;-1.628;2022-07-01T00:17:59;15.90;99.90
35633;DHT22;21754;48.216;-1.628;2022-07-01T00:20:25;15.90;99.90
35633;DHT22;21754;48.216;-1.628;2022-07-01T00:22:52;15.90;99.90
35633;DHT22;21754;48.216;-1.628;2022-07-01T00:25:17;15.90;99.90
35633;DHT22;21754;48.216;-1.628;2022-07-01T00:27:43;15.80;99.90
35633;DHT22;21754;48.216;-1.628;2022-07-01T00:30:09;15.80;99.90
35633;DHT22;21754;48.216;-1.628;2022-07-01T00:32:35;15.80;99.90
35633;DHT22;21754;48.216;-1.628;2022-07-01T00:35:01;15.80;99.90
35633;DHT22;21754;48.216;-1.628;2022-07-01T00:37:27;15.70;99.90
35633;DHT22;21754;48.216;-1.628;2022-07-01T00:39:53;15.60;99.90
35633;DHT22;21754;48.216;-1.628;2022-07-01T00:42:19;15.60;99.90
35633;DHT22;21754;48.216;-1.628;2022-07-01T00:44:44;15.50;99.90
35633;DHT22;21754;48.216;-1.628;2022-07-01T00:47:12;15.50;99.90
35633;DHT22;21754;48.216;-1.628;2022-07-01T00:49:39;15.40;99.90
35633;DHT22;21754;48.216;-1.628;2022-07-01T00:52:06;15.40;99.90
35633;DHT22;21754;48.216;-1.628;2022-07-01T00:54:35;15.40;99.90
35633;DHT22;21754;48.216;-1.628;2022-07-01T00:57:06;15.40;99.90
35633;DHT22;21754;48.216;-1.628;2022-07-01T00:59:33;15.40;99.90
35633;DHT22;21754;48.216;-1.628;2022-07-01T01:02:00;15.40;99.90
35633;DHT22;21754;48.216;-1.628;2022-07-01T01:04:26;15.40;99.90
35633;DHT22;21754;48.216;-1.628;2022-07-01T01:06:51;15.40;99.90
35633;DHT22;21754;48.216;-1.628;2022-07-01T01:09:17;15.40;99.90
35633;DHT22;21754;48.216;-1.628;2022-07-01T01:11:43;15.40;99.90
35633;DHT22;21754;48.216;-1.628;2022-07-01T01:14:08;15.50;99.90
35633;DHT22;21754;48.216;-1.628;2022-07-01T01:16:34;15.50;99.90
35633;DHT22;21754;48.216;-1.628;2022-07-01T01:19:06;15.50;99.90
35633;DHT22;21754;48.216;-1.628;2022-07-01T01:21:33;15.50;99.90
35633;DHT22;21754;48.216;-1.628;2022-07-01T01:23:59;15.50;99.90
35633;DHT22;21754;48.216;-1.628;2022-07-01T01:26:25;15.50;99.90
35633;DHT22;21754;48.216;-1.628;2022-07-01T01:28:51;15.40;99.90
35633;DHT22;21754;48.216;-1.628;2022-07-01T01:31:17;15.40;99.90
35633;DHT22;21754;48.216;-1.628;2022-07-01T01:33:44;15.30;99.90
35633;DHT22;21754;48.216;-1.628;2022-07-01T01:36:10;15.30;99.90
35633;DHT22;21754;48.216;-1.628;2022-07-01T01:38:36;15.20;99.90
35633;DHT22;21754;48.216;-1.628;2022-07-01T01:41:05;15.20;99.90
35633;DHT22;21754;48.216;-1.628;2022-07-01T01:48:35;15.30;99.90
35633;DHT22;21754;48.216;-1.628;2022-07-01T01:51:01;15.30;99.90
35633;DHT22;21754;48.216;-1.628;2022-07-01T01:53:27;15.40;99.90
35633;DHT22;21754;48.216;-1.628;2022-07-01T01:55:53;15.40;99.90
35633;DHT22;21754;48.216;-1.628;2022-07-01T01:58:19;15.40;99.90
35633;DHT22;21754;48.216;-1.628;2022-07-01T02:00:44;15.40;99.90
35633;DHT22;21754;48.216;-1.628;2022-07-01T02:03:10;15.40;99.90
35633;DHT22;21754;48.216;-1.628;2022-07-01T02:05:36;15.40;99.90
35633;DHT22;21754;48.216;-1.628;2022-07-01T02:08:03;15.40;99.90
35633;DHT22;21754;48.216;-1.628;2022-07-01T02:10:28;15.40;99.90
35633;DHT22;21754;48.216;-1.628;2022-07-01T02:12:54;15.40;99.90
35633;DHT22;21754;48.216;-1.628;2022-07-01T02:15:20;15.40;99.90
35633;DHT22;21754;48.216;-1.628;2022-07-01T02:17:45;15.40;99.90
35633;DHT22;21754;48.216;-1.628;2022-07-01T02:20:11;15.30;99.90
35633;DHT22;21754;48.216;-1.628;2022-07-01T02:22:40;15.30;99.90
35633;DHT22;21754;48.216;-1.628;2022-07-01T02:25:07;15.30;99.90
35633;DHT22;21754;48.216;-1.628;2022-07-01T02:27:33;15.20;99.90
35633;DHT22;21754;48.216;-1.628;2022-07-01T02:29:58;15.20;99.90
35633;DHT22;21754;48.216;-1.628;2022-07-01T02:32:24;15.20;99.90
35633;DHT22;21754;48.216;-1.628;2022-07-01T02:34:50;15.10;99.90
35633;DHT22;21754;48.216;-1.628;2022-07-01T02:37:16;15.10;99.90
35633;DHT22;21754;48.216;-1.628;2022-07-01T02:39:42;14.90;99.90
35633;DHT22;21754;48.216;-1.628;2022-07-01T02:42:08;14.80;99.90
35633;DHT22;21754;48.216;-1.628;2022-07-01T02:44:48;14.60;99.90
35633;DHT22;21754;48.216;-1.628;2022-07-01T02:47:14;14.50;99.90
35633;DHT22;21754;48.216;-1.628;2022-07-01T02:49:40;14.50;99.90
35633;DHT22;21754;48.216;-1.628;2022-07-01T02:52:06;14.50;99.90
35633;DHT22;21754;48.216;-1.628;2022-07-01T02:54:31;14.50;99.90
35633;DHT22;21754;48.216;-1.628;2022-07-01T02:56:57;14.50;99.90
35633;DHT22;21754;48.216;-1.628;2022-07-01T02:59:23;14.50;99.90
35633;DHT22;21754;48.216;-1.628;2022-07-01T03:01:48;14.50;99.90
35633;DHT22;21754;48.216;-1.628;2022-07-01T03:04:14;14.60;99.90
35633;DHT22;21754;48.216;-1.628;2022-07-01T03:06:40;14.50;99.90
35633;DHT22;21754;48.216;-1.628;2022-07-01T03:09:06;14.50;99.90
35633;DHT22;21754;48.216;-1.628;2022-07-01T03:11:32;14.50;99.90
35633;DHT22;21754;48.216;-1.628;2022-07-01T03:13:57;14.50;99.90
35633;DHT22;21754;48.216;-1.628;2022-07-01T03:16:23;14.50;99.90
35633;DHT22;21754;48.216;-1.628;2022-07-01T03:18:49;14.50;99.90
35633;DHT22;21754;48.216;-1.628;2022-07-01T03:21:14;14.50;99.90
35633;DHT22;21754;48.216;-1.628;2022-07-01T03:23:40;14.40;99.90
35633;DHT22;21754;48.216;-1.628;2022-07-01T03:26:05;14.30;99.90
35633;DHT22;21754;48.216;-1.628;2022-07-01T03:28:31;14.20;99.90
35633;DHT22;21754;48.216;-1.628;2022-07-01T03:30:59;14.10;99.90
35633;DHT22;21754;48.216;-1.628;2022-07-01T03:33:25;14.00;99.90
35633;DHT22;21754;48.216;-1.628;2022-07-01T03:35:51;13.90;99.90
35633;DHT22;21754;48.216;-1.628;2022-07-01T03:38:16;13.90;99.90
35633;DHT22;21754;48.216;-1.628;2022-07-01T03:40:42;13.80;99.90
35633;DHT22;21754;48.216;-1.628;2022-07-01T03:43:08;13.80;99.90
35633;DHT22;21754;48.216;-1.628;2022-07-01T03:45:34;13.80;99.90
35633;DHT22;21754;48.216;-1.628;2022-07-01T03:48:01;13.80;99.90
35633;DHT22;21754;48.216;-1.628;2022-07-01T03:50:28;13.80;99.90
35633;DHT22;21754;48.216;-1.628;2022-07-01T03:52:54;13.90;99.90
35633;DHT22;21754;48.216;-1.628;2022-07-01T03:55:38;13.80;99.90
35633;DHT22;21754;48.216;-1.628;2022-07-01T03:58:05;13.80;99.90
35633;DHT22;21754;48.216;-1.628;2022-07-01T04:00:35;13.80;99.90
35633;DHT22;21754;48.216;-1.628;2022-07-01T04:03:02;13.80;99.90
35633;DHT22;21754;48.216;-1.628;2022-07-01T04:05:27;13.70;99.90
35633;DHT22;21754;48.216;-1.628;2022-07-01T04:07:53;13.80;99.90
35633;DHT22;21754;48.216;-1.628;2022-07-01T04:10:19;13.70;99.90
35633;DHT22;21754;48.216;-1.628;2022-07-01T04:12:45;13.70;99.90
35633;DHT22;21754;48.216;-1.628;2022-07-01T04:15:11;13.80;99.90
35633;DHT22;21754;48.216;-1.628;2022-07-01T04:17:36;13.80;99.90
35633;DHT22;21754;48.216;-1.628;2022-07-01T04:20:02;13.90;99.90
35633;DHT22;21754;48.216;-1.628;2022-07-01T04:22:29;13.90;99.90
35633;DHT22;21754;48.216;-1.628;2022-07-01T04:25:04;14.00;99.90
35633;DHT22;21754;48.216;-1.628;2022-07-01T04:27:33;14.10;99.90
35633;DHT22;21754;48.216;-1.628;2022-07-01T04:29:59;14.20;99.90
35633;DHT22;21754;48.216;-1.628;2022-07-01T04:32:25;14.30;99.90
35633;DHT22;21754;48.216;-1.628;2022-07-01T04:34:50;14.30;99.90
35633;DHT22;21754;48.216;-1.628;2022-07-01T04:37:16;14.30;99.90
35633;DHT22;21754;48.216;-1.628;2022-07-01T04:39:42;14.40;99.90
35633;DHT22;21754;48.216;-1.628;2022-07-01T04:42:08;14.40;99.90
35633;DHT22;21754;48.216;-1.628;2022-07-01T04:44:35;14.50;99.90
35633;DHT22;21754;48.216;-1.628;2022-07-01T04:47:02;14.50;99.90
35633;DHT22;21754;48.216;-1.628;2022-07-01T04:49:28;14.50;99.90
35633;DHT22;21754;48.216;-1.628;2022-07-01T04:51:55;14.50;99.90
35633;DHT22;21754;48.216;-1.628;2022-07-01T04:54:20;14.50;99.90
35633;DHT22;21754;48.216;-1.628;2022-07-01T04:56:46;14.50;99.90
35633;DHT22;21754;48.216;-1.628;2022-07-01T04:59:13;14.50;99.90
35633;DHT22;21754;48.216;-1.628;2022-07-01T05:01:43;14.50;99.90
35633;DHT22;21754;48.216;-1.628;2022-07-01T05:04:09;14.50;99.90
35633;DHT22;21754;48.216;-1.628;2022-07-01T05:06:35;14.60;99.90
35633;DHT22;21754;48.216;-1.628;2022-07-01T05:09:01;14.50;99.90
35633;DHT22;21754;48.216;-1.628;2022-07-01T05:11:26;14.60;99.90
35633;DHT22;21754;48.216;-1.628;2022-07-01T05:13:52;14.60;99.90
35633;DHT22;21754;48.216;-1.628;2022-07-01T05:16:18;14.60;99.90
35633;DHT22;21754;48.216;-1.628;2022-07-01T05:18:44;14.60;99.90
35633;DHT22;21754;48.216;-1.628;2022-07-01T05:21:28;14.70;99.90
35633;DHT22;21754;48.216;-1.628;2022-07-01T05:24:12;14.70;99.90
35633;DHT22;21754;48.216;-1.628;2022-07-01T05:26:38;14.80;99.90
35633;DHT22;21754;48.216;-1.628;2022-07-01T05:29:04;14.80;99.90
35633;DHT22;21754;48.216;-1.628;2022-07-01T05:31:30;14.90;99.90
35633;DHT22;21754;48.216;-1.628;2022-07-01T05:33:55;14.90;99.90
35633;DHT22;21754;48.216;-1.628;2022-07-01T05:36:21;15.00;99.90
35633;DHT22;21754;48.216;-1.628;2022-07-01T05:38:47;15.00;99.90
35633;DHT22;21754;48.216;-1.628;2022-07-01T05:41:13;15.00;99.90
35633;DHT22;21754;48.216;-1.628;2022-07-01T05:43:38;15.10;99.90
35633;DHT22;21754;48.216;-1.628;2022-07-01T05:46:04;15.10;99.90
35633;DHT22;21754;48.216;-1.628;2022-07-01T05:48:30;15.10;99.90
35633;DHT22;21754;48.216;-1.628;2022-07-01T05:50:55;15.10;99.90
35633;DHT22;21754;48.216;-1.628;2022-07-01T05:53:21;15.20;99.90
35633;DHT22;21754;48.216;-1.628;2022-07-01T05:55:47;15.20;99.90
35633;DHT22;21754;48.216;-1.628;2022-07-01T05:58:14;15.20;99.90
35633;DHT22;21754;48.216;-1.628;2022-07-01T06:00:40;15.20;99.90
35633;DHT22;21754;48.216;-1.628;2022-07-01T06:03:10;15.20;99.90
35633;DHT22;21754;48.216;-1.628;2022-07-01T06:05:36;15.20;99.90
35633;DHT22;21754;48.216;-1.628;2022-07-01T06:08:03;15.20;99.90
35633;DHT22;21754;48.216;-1.628;2022-07-01T06:10:29;15.30;99.90
35633;DHT22;21754;48.216;-1.628;2022-07-01T06:12:54;15.40;99.90
35633;DHT22;21754;48.216;-1.628;2022-07-01T06:15:20;15.40;99.90
35633;DHT22;21754;48.216;-1.628;2022-07-01T06:17:46;15.50;99.90
35633;DHT22;21754;48.216;-1.628;2022-07-01T06:20:12;15.50;99.90
35633;DHT22;21754;48.216;-1.628;2022-07-01T06:22:37;15.60;99.90
35633;DHT22;21754;48.216;-1.628;2022-07-01T06:25:04;15.60;99.90
35633;DHT22;21754;48.216;-1.628;2022-07-01T06:27:29;15.60;99.90
35633;DHT22;21754;48.216;-1.628;2022-07-01T06:29:55;15.70;99.90
35633;DHT22;21754;48.216;-1.628;2022-07-01T06:32:21;15.70;99.90
35633;DHT22;21754;48.216;-1.628;2022-07-01T06:34:46;15.80;99.90
35633;DHT22;21754;48.216;-1.628;2022-07-01T06:37:13;15.90;99.90
35633;DHT22;21754;48.216;-1.628;2022-07-01T06:39:39;15.90;99.90
35633;DHT22;21754;48.216;-1.628;2022-07-01T06:42:05;16.00;99.90
35633;DHT22;21754;48.216;-1.628;2022-07-01T06:44:31;16.10;99.90
35633;DHT22;21754;48.216;-1.628;2022-07-01T06:46:57;16.10;99.90
35633;DHT22;21754;48.216;-1.628;2022-07-01T06:49:22;16.20;99.90
35633;DHT22;21754;48.216;-1.628;2022-07-01T06:51:48;16.30;99.90
35633;DHT22;21754;48.216;-1.628;2022-07-01T06:54:14;16.30;99.90
35633;DHT22;21754;48.216;-1.628;2022-07-01T06:56:39;16.40;99.90
35633;DHT22;21754;48.216;-1.628;2022-07-01T06:59:05;16.50;99.90
35633;DHT22;21754;48.216;-1.628;2022-07-01T07:01:31;16.50;99.90
35633;DHT22;21754;48.216;-1.628;2022-07-01T07:03:56;16.60;99.90
35633;DHT22;21754;48.216;-1.628;2022-07-01T07:06:22;16.70;99.90
35633;DHT22;21754;48.216;-1.628;2022-07-01T07:08:48;16.70;99.90
35633;DHT22;21754;48.216;-1.628;2022-07-01T07:11:14;16.80;99.90
35633;DHT22;21754;48.216;-1.628;2022-07-01T07:13:41;16.80;99.90
35633;DHT22;21754;48.216;-1.628;2022-07-01T07:16:07;16.80;99.90
35633;DHT22;21754;48.216;-1.628;2022-07-01T07:18:32;16.90;99.90
35633;DHT22;21754;48.216;-1.628;2022-07-01T07:20:58;16.90;99.90
35633;DHT22;21754;48.216;-1.628;2022-07-01T07:23:24;17.00;99.90
35633;DHT22;21754;48.216;-1.628;2022-07-01T07:25:49;17.10;99.90
35633;DHT22;21754;48.216;-1.628;2022-07-01T07:28:15;17.10;99.90
35633;DHT22;21754;48.216;-1.628;2022-07-01T07:30:40;17.20;99.90
35633;DHT22;21754;48.216;-1.628;2022-07-01T07:33:06;17.20;99.90
35633;DHT22;21754;48.216;-1.628;2022-07-01T07:35:32;17.30;99.90
35633;DHT22;21754;48.216;-1.628;2022-07-01T07:37:57;17.40;99.90
35633;DHT22;21754;48.216;-1.628;2022-07-01T07:40:23;17.40;99.90
35633;DHT22;21754;48.216;-1.628;2022-07-01T07:42:49;17.40;99.90
35633;DHT22;21754;48.216;-1.628;2022-07-01T07:45:16;17.60;99.90
35633;DHT22;21754;48.216;-1.628;2022-07-01T07:47:43;17.60;99.90
35633;DHT22;21754;48.216;-1.628;2022-07-01T07:50:10;17.60;99.90
35633;DHT22;21754;48.216;-1.628;2022-07-01T07:52:36;17.50;99.90
35633;DHT22;21754;48.216;-1.628;2022-07-01T07:55:02;17.50;99.90
35633;DHT22;21754;48.216;-1.628;2022-07-01T07:57:28;17.70;99.90
35633;DHT22;21754;48.216;-1.628;2022-07-01T07:59:53;17.90;99.90
35633;DHT22;21754;48.216;-1.628;2022-07-01T08:02:19;18.00;99.90
35633;DHT22;21754;48.216;-1.628;2022-07-01T08:04:45;18.00;99.90
35633;DHT22;21754;48.216;-1.628;2022-07-01T08:07:10;18.20;99.90
35633;DHT22;21754;48.216;-1.628;2022-07-01T08:09:36;18.30;99.90
35633;DHT22;21754;48.216;-1.628;2022-07-01T08:12:03;18.40;99.90
35633;DHT22;21754;48.216;-1.628;2022-07-01T08:14:29;18.40;99.90
35633;DHT22;21754;48.216;-1.628;2022-07-01T08:16:55;18.50;99.90
35633;DHT22;21754;48.216;-1.628;2022-07-01T08:19:20;18.60;99.90
35633;DHT22;21754;48.216;-1.628;2022-07-01T08:21:46;18.60;99.90
35633;DHT22;21754;48.216;-1.628;2022-07-01T08:24:11;18.60;99.90
35633;DHT22;21754;48.216;-1.628;2022-07-01T08:26:37;18.70;99.90
35633;DHT22;21754;48.216;-1.628;2022-07-01T08:29:03;18.80;99.90
35633;DHT22;21754;48.216;-1.628;2022-07-01T08:31:29;18.80;99.90
35633;DHT22;21754;48.216;-1.628;2022-07-01T08:33:55;18.90;99.90
35633;DHT22;21754;48.216;-1.628;2022-07-01T08:36:21;18.90;99.90
35633;DHT22;21754;48.216;-1.628;2022-07-01T08:38:46;19.00;99.90
35633;DHT22;21754;48.216;-1.628;2022-07-01T08:41:14;19.00;99.90
35633;DHT22;21754;48.216;-1.628;2022-07-01T08:43:40;19.00;99.90
35633;DHT22;21754;48.216;-1.628;2022-07-01T08:46:07;18.80;99.90
35633;DHT22;21754;48.216;-1.628;2022-07-01T08:48:34;18.90;99.90
35633;DHT22;21754;48.216;-1.628;2022-07-01T08:51:00;19.10;99.90
35633;DHT22;21754;48.216;-1.628;2022-07-01T08:53:30;19.20;99.90
35633;DHT22;21754;48.216;-1.628;2022-07-01T08:55:57;19.20;99.90
35633;DHT22;21754;48.216;-1.628;2022-07-01T08:58:41;19.30;99.90
35633;DHT22;21754;48.216;-1.628;2022-07-01T09:01:20;19.50;99.90
35633;DHT22;21754;48.216;-1.628;2022-07-01T09:03:46;19.50;99.90
35633;DHT22;21754;48.216;-1.628;2022-07-01T09:06:14;19.70;99.90
35633;DHT22;21754;48.216;-1.628;2022-07-01T09:08:41;19.80;99.90
35633;DHT22;21754;48.216;-1.628;2022-07-01T09:11:21;19.90;99.90
35633;DHT22;21754;48.216;-1.628;2022-07-01T09:14:05;19.70;99.90
35633;DHT22;21754;48.216;-1.628;2022-07-01T09:16:48;19.80;99.90
35633;DHT22;21754;48.216;-1.628;2022-07-01T09:19:19;20.00;99.90
35633;DHT22;21754;48.216;-1.628;2022-07-01T09:22:03;20.10;99.90
35633;DHT22;21754;48.216;-1.628;2022-07-01T09:24:38;20.20;99.90
35633;DHT22;21754;48.216;-1.628;2022-07-01T09:27:08;20.30;99.90
35633;DHT22;21754;48.216;-1.628;2022-07-01T09:30:00;20.40;99.90
35633;DHT22;21754;48.216;-1.628;2022-07-01T09:32:25;20.60;99.90
35633;DHT22;21754;48.216;-1.628;2022-07-01T09:34:52;20.80;99.90
35633;DHT22;21754;48.216;-1.628;2022-07-01T09:37:21;20.80;99.90
35633;DHT22;21754;48.216;-1.628;2022-07-01T09:42:14;21.00;99.90
35633;DHT22;21754;48.216;-1.628;2022-07-01T09:47:28;21.00;99.90
35633;DHT22;21754;48.216;-1.628;2022-07-01T09:49:54;20.90;99.90
35633;DHT22;21754;48.216;-1.628;2022-07-01T09:52:21;20.60;99.90
35633;DHT22;21754;48.216;-1.628;2022-07-01T09:54:48;20.70;99.90
35633;DHT22;21754;48.216;-1.628;2022-07-01T09:57:15;20.80;99.90
35633;DHT22;21754;48.216;-1.628;2022-07-01T09:59:40;20.90;99.90
35633;DHT22;21754;48.216;-1.628;2022-07-01T10:02:10;21.00;99.90
35633;DHT22;21754;48.216;-1.628;2022-07-01T10:04:40;21.20;99.90
35633;DHT22;21754;48.216;-1.628;2022-07-01T10:10:41;21.40;99.90
35633;DHT22;21754;48.216;-1.628;2022-07-01T10:12:51;21.60;99.90
35633;DHT22;21754;48.216;-1.628;2022-07-01T10:15:19;21.80;99.90
35633;DHT22;21754;48.216;-1.628;2022-07-01T10:17:48;21.90;99.90
35633;DHT22;21754;48.216;-1.628;2022-07-01T10:20:21;22.00;99.90
35633;DHT22;21754;48.216;-1.628;2022-07-01T10:22:48;21.80;99.90
35633;DHT22;21754;48.216;-1.628;2022-07-01T10:36:32;21.30;99.90
35633;DHT22;21754;48.216;-1.628;2022-07-01T10:41:34;21.70;99.90
35633;DHT22;21754;48.216;-1.628;2022-07-01T10:44:08;21.90;99.90
35633;DHT22;21754;48.216;-1.628;2022-07-01T10:49:07;22.00;99.90
35633;DHT22;21754;48.216;-1.628;2022-07-01T11:04:45;21.50;99.90
35633;DHT22;21754;48.216;-1.628;2022-07-01T11:07:11;21.90;99.90
35633;DHT22;21754;48.216;-1.628;2022-07-01T11:09:37;22.20;99.90
35633;DHT22;21754;48.216;-1.628;2022-07-01T11:12:04;22.40;99.90
35633;DHT22;21754;48.216;-1.628;2022-07-01T11:14:37;22.50;99.90
35633;DHT22;21754;48.216;-1.628;2022-07-01T11:17:04;22.30;99.90
35633;DHT22;21754;48.216;-1.628;2022-07-01T11:19:29;22.50;99.90
35633;DHT22;21754;48.216;-1.628;2022-07-01T11:21:55;22.70;99.90
35633;DHT22;21754;48.216;-1.628;2022-07-01T11:24:22;23.00;99.90
35633;DHT22;21754;48.216;-1.628;2022-07-01T11:26:48;23.20;99.90
35633;DHT22;21754;48.216;-1.628;2022-07-01T11:29:23;23.40;99.90
35633;DHT22;21754;48.216;-1.628;2022-07-01T11:31:49;23.20;99.90
35633;DHT22;21754;48.216;-1.628;2022-07-01T11:34:16;23.00;99.90
35633;DHT22;21754;48.216;-1.628;2022-07-01T11:36:44;23.20;99.90
35633;DHT22;21754;48.216;-1.628;2022-07-01T11:39:28;23.30;99.90
35633;DHT22;21754;48.216;-1.628;2022-07-01T11:42:00;23.60;99.90
35633;DHT22;21754;48.216;-1.628;2022-07-01T11:44:43;23.70;99.90
35633;DHT22;21754;48.216;-1.628;2022-07-01T11:47:11;23.90;99.90
35633;DHT22;21754;48.216;-1.628;2022-07-01T11:49:45;24.10;99.90
35633;DHT22;21754;48.216;-1.628;2022-07-01T11:52:15;24.20;99.90
35633;DHT22;21754;48.216;-1.628;2022-07-01T11:54:45;24.20;99.90
35633;DHT22;21754;48.216;-1.628;2022-07-01T11:57:14;24.30;99.90
35633;DHT22;21754;48.216;-1.628;2022-07-01T11:59:40;24.00;99.90
35633;DHT22;21754;48.216;-1.628;2022-07-01T12:02:07;24.10;99.90
35633;DHT22;21754;48.216;-1.628;2022-07-01T12:04:34;24.30;99.90
35633;DHT22;21754;48.216;-1.628;2022-07-01T12:07:00;24.20;99.90
35633;DHT22;21754;48.216;-1.628;2022-07-01T12:09:26;24.30;99.90
35633;DHT22;21754;48.216;-1.628;2022-07-01T12:11:53;24.40;99.90
35633;DHT22;21754;48.216;-1.628;2022-07-01T12:14:38;24.40;99.90
35633;DHT22;21754;48.216;-1.628;2022-07-01T12:17:05;24.40;99.90
35633;DHT22;21754;48.216;-1.628;2022-07-01T12:19:42;24.40;99.90
35633;DHT22;21754;48.216;-1.628;2022-07-01T12:22:12;24.60;99.90
35633;DHT22;21754;48.216;-1.628;2022-07-01T12:24:38;24.80;99.90
35633;DHT22;21754;48.216;-1.628;2022-07-01T12:27:06;24.90;99.90
35633;DHT22;21754;48.216;-1.628;2022-07-01T12:32:21;24.80;99.90
35633;DHT22;21754;48.216;-1.628;2022-07-01T12:34:58;24.80;99.90
35633;DHT22;21754;48.216;-1.628;2022-07-01T12:37:32;24.70;99.90
35633;DHT22;21754;48.216;-1.628;2022-07-01T12:42:33;24.80;99.90
35633;DHT22;21754;48.216;-1.628;2022-07-01T12:45:00;24.40;99.90
35633;DHT22;21754;48.216;-1.628;2022-07-01T12:52:40;24.40;99.90
35633;DHT22;21754;48.216;-1.628;2022-07-01T12:55:19;23.90;99.90
35633;DHT22;21754;48.216;-1.628;2022-07-01T12:57:50;23.80;99.90
35633;DHT22;21754;48.216;-1.628;2022-07-01T13:00:17;23.70;99.90
35633;DHT22;21754;48.216;-1.628;2022-07-01T13:02:43;24.10;99.90
35633;DHT22;21754;48.216;-1.628;2022-07-01T13:05:09;24.50;99.90
35633;DHT22;21754;48.216;-1.628;2022-07-01T13:07:34;24.80;99.90
35633;DHT22;21754;48.216;-1.628;2022-07-01T13:10:00;24.90;99.90
35633;DHT22;21754;48.216;-1.628;2022-07-01T13:12:26;24.70;99.90
35633;DHT22;21754;48.216;-1.628;2022-07-01T13:14:51;24.70;99.90
35633;DHT22;21754;48.216;-1.628;2022-07-01T13:17:17;24.90;99.90
35633;DHT22;21754;48.216;-1.628;2022-07-01T13:19:43;25.10;99.90
35633;DHT22;21754;48.216;-1.628;2022-07-01T13:22:09;25.40;99.90
35633;DHT22;21754;48.216;-1.628;2022-07-01T13:24:34;25.50;99.90
35633;DHT22;21754;48.216;-1.628;2022-07-01T13:27:00;25.70;99.90
35633;DHT22;21754;48.216;-1.628;2022-07-01T13:29:26;25.80;99.90
35633;DHT22;21754;48.216;-1.628;2022-07-01T13:31:51;25.90;99.90
35633;DHT22;21754;48.216;-1.628;2022-07-01T14:18:05;26.00;99.90
35633;DHT22;21754;48.216;-1.628;2022-07-01T14:20:31;24.70;99.90
35633;DHT22;21754;48.216;-1.628;2022-07-01T14:22:57;24.50;99.90
35633;DHT22;21754;48.216;-1.628;2022-07-01T14:25:22;24.50;99.90
35633;DHT22;21754;48.216;-1.628;2022-07-01T14:27:48;24.40;99.90
35633;DHT22;21754;48.216;-1.628;2022-07-01T14:30:15;24.20;99.90
35633;DHT22;21754;48.216;-1.628;2022-07-01T14:32:41;23.60;99.90
35633;DHT22;21754;48.216;-1.628;2022-07-01T14:35:07;23.40;99.90
35633;DHT22;21754;48.216;-1.628;2022-07-01T14:37:33;23.40;99.90
35633;DHT22;21754;48.216;-1.628;2022-07-01T14:39:59;23.10;99.90
35633;DHT22;21754;48.216;-1.628;2022-07-01T14:42:25;22.80;99.90
35633;DHT22;21754;48.216;-1.628;2022-07-01T14:44:52;22.90;99.90
35633;DHT22;21754;48.216;-1.628;2022-07-01T14:47:18;22.80;99.90
35633;DHT22;21754;48.216;-1.628;2022-07-01T14:49:44;23.20;99.90
35633;DHT22;21754;48.216;-1.628;2022-07-01T14:52:11;23.20;99.90
35633;DHT22;21754;48.216;-1.628;2022-07-01T14:54:38;23.20;99.90
35633;DHT22;21754;48.216;-1.628;2022-07-01T14:57:04;23.40;99.90
35633;DHT22;21754;48.216;-1.628;2022-07-01T14:59:30;23.80;99.90
35633;DHT22;21754;48.216;-1.628;2022-07-01T15:01:55;24.30;99.90
35633;DHT22;21754;48.216;-1.628;2022-07-01T15:04:26;24.60;99.90
35633;DHT22;21754;48.216;-1.628;2022-07-01T15:06:52;24.90;99.90
35633;DHT22;21754;48.216;-1.628;2022-07-01T15:09:17;25.10;99.90
35633;DHT22;21754;48.216;-1.628;2022-07-01T15:11:50;25.50;99.90
35633;DHT22;21754;48.216;-1.628;2022-07-01T15:16:42;25.70;99.90
35633;DHT22;21754;48.216;-1.628;2022-07-01T15:19:08;25.90;99.90
35633;DHT22;21754;48.216;-1.628;2022-07-01T15:21:34;25.90;99.90
35633;DHT22;21754;48.216;-1.628;2022-07-01T15:24:00;26.00;99.90
35633;DHT22;21754;48.216;-1.628;2022-07-01T15:26:26;26.00;99.90
35633;DHT22;21754;48.216;-1.628;2022-07-01T15:28:51;26.20;99.90
35633;DHT22;21754;48.216;-1.628;2022-07-01T15:31:17;26.40;99.90
35633;DHT22;21754;48.216;-1.628;2022-07-01T15:33:43;26.50;99.90
35633;DHT22;21754;48.216;-1.628;2022-07-01T15:36:09;26.70;99.90
35633;DHT22;21754;48.216;-1.628;2022-07-01T15:38:39;26.90;99.90
35633;DHT22;21754;48.216;-1.628;2022-07-01T15:41:05;27.00;99.90
35633;DHT22;21754;48.216;-1.628;2022-07-01T15:43:32;26.90;99.70
35633;DHT22;21754;48.216;-1.628;2022-07-01T15:45:59;27.00;99.90
35633;DHT22;21754;48.216;-1.628;2022-07-01T15:48:25;27.10;99.90
35633;DHT22;21754;48.216;-1.628;2022-07-01T15:50:51;27.00;96.30
35633;DHT22;21754;48.216;-1.628;2022-07-01T15:53:18;27.10;99.00
35633;DHT22;21754;48.216;-1.628;2022-07-01T15:55:46;27.30;97.30
35633;DHT22;21754;48.216;-1.628;2022-07-01T15:58:15;27.20;97.10
35633;DHT22;21754;48.216;-1.628;2022-07-01T16:00:45;27.30;98.90
35633;DHT22;21754;48.216;-1.628;2022-07-01T16:03:13;26.90;94.20
35633;DHT22;21754;48.216;-1.628;2022-07-01T16:05:39;26.80;92.70
35633;DHT22;21754;48.216;-1.628;2022-07-01T16:08:12;27.00;99.70
35633;DHT22;21754;48.216;-1.628;2022-07-01T16:10:47;27.40;98.00
35633;DHT22;21754;48.216;-1.628;2022-07-01T16:13:20;27.70;93.50
35633;DHT22;21754;48.216;-1.628;2022-07-01T16:18:13;27.90;95.70
35633;DHT22;21754;48.216;-1.628;2022-07-01T16:20:48;28.00;94.90
35633;DHT22;21754;48.216;-1.628;2022-07-01T16:23:26;27.90;94.50
35633;DHT22;21754;48.216;-1.628;2022-07-01T16:25:53;27.70;94.40
35633;DHT22;21754;48.216;-1.628;2022-07-01T16:28:22;27.40;94.80
35633;DHT22;21754;48.216;-1.628;2022-07-01T16:30:48;27.20;95.20
35633;DHT22;21754;48.216;-1.628;2022-07-01T16:33:14;27.20;97.00
35633;DHT22;21754;48.216;-1.628;2022-07-01T16:38:30;27.50;98.40
35633;DHT22;21754;48.216;-1.628;2022-07-01T16:41:05;27.90;99.40
35633;DHT22;21754;48.216;-1.628;2022-07-01T16:43:46;27.80;96.50
35633;DHT22;21754;48.216;-1.628;2022-07-01T16:46:14;27.70;95.30
35633;DHT22;21754;48.216;-1.628;2022-07-01T16:48:41;27.60;95.40
35633;DHT22;21754;48.216;-1.628;2022-07-01T16:51:09;27.40;95.60
35633;DHT22;21754;48.216;-1.628;2022-07-01T16:53:42;27.30;95.50
35633;DHT22;21754;48.216;-1.628;2022-07-01T16:56:15;27.10;93.70
35633;DHT22;21754;48.216;-1.628;2022-07-01T16:58:51;26.80;95.70
35633;DHT22;21754;48.216;-1.628;2022-07-01T17:01:18;26.70;95.40